Etusivu
METAR-TAF:

METAR-TAF

Lentoasemat :

Kansas City, Missouri, Yhdysvallat

Kansas Cityn kansainvälinen lentoasema

Leveyspiiri: 39-17-50N, Pituuspiiri: 094-43-50W, korkeus merenpinnasta: 312 m

Tämänhetkinen sää

Tämä raportti tehtiin 58 minuuttia sitten, kello 11.53 UTC
tyyntä
Lämpötila 19°C
Kosteus 94%
Ilmanpaine 1015 hPa
Näkyvyys: 16.1 km
selkeää

METAR: KMCI 191153Z 00000KT 10SM CLR 19/18 A2996 RMK AO2 SLP136 70009 T01890183 10211 20183 53007 $

Aika: 07:51 (12:51 UTC)

Sääennuste

Tämä raportti tehtiin 1 tunti ja 23 minuuttia sitten, kello 11.28 UTC
Ennuste voimassa 19. päivästä klo 12 UTC - 20. päivään klo 12 UTC
Tuuli 3 kn eri suunnista
Näkyvyys: 10 km
selkeää
From 19. päivästä klo 1800 UTC
Tuuli 6 kn etelästä/kaakosta
Näkyvyys: 10 km
Muutamia pilviä 25000 ft:n korkeudessa

TAF: KMCI 191128Z 1912/2012 VRB03KT P6SM SKC FM191800 15006KT P6SM FEW250

Säähavainnot ja -ennusteet yli 4000 lentoasemalta (METAR- ja TAF-raportit).

Käytössä olevat sääasemat on merkitty karttaan keltaisilla ja punaisilla pisteillä.

Aseta hiiri pisteen päälle nähdäksesi sääaseman nimen.

Klikkaa sitten nähdäksesi säähavainnot ja -ennusteet.

Kartan vaihtaminen: klikkaa mustalla rastilla varustettuja vihreitä pisteitä, niin voit zoomata sisään; viivalla varustettua vihreää pistettä, niin voit zoomata ulos tai vihreitä nuolia, niin pääset viereisille kartoille.


METAR-TAF: